sensor_id;sensor_type;location;lat;lon;timestamp;P1;P2;P0
60374;PMS5003;70244;48.792;9.172;2023-12-20T05:18:44;19;17;
60374;PMS5003;70244;48.792;9.172;2023-12-20T05:21:14;9;9;
60374;PMS5003;70244;48.792;9.172;2023-12-20T05:23:45;17;17;
60374;PMS5003;70244;48.792;9.172;2023-12-20T05:26:15;24;21;
60374;PMS5003;70244;48.792;9.172;2023-12-20T05:28:46;18;17;
60374;PMS5003;70244;48.792;9.172;2023-12-20T05:31:16;23;19;
60374;PMS5003;70244;48.792;9.172;2023-12-20T05:33:47;20;18;
60374;PMS5003;70244;48.792;9.172;2023-12-20T05:36:17;19;18;
60374;PMS5003;70244;48.792;9.172;2023-12-20T05:38:48;19;17;
60374;PMS5003;70244;48.792;9.172;2023-12-20T05:41:19;20;18;
60374;PMS5003;70244;48.792;9.172;2023-12-20T05:43:49;19;19;
60374;PMS5003;70244;48.792;9.172;2023-12-20T05:46:20;17;17;
60374;PMS5003;70244;48.792;9.172;2023-12-20T05:48:50;16;16;
60374;PMS5003;70244;48.792;9.172;2023-12-20T05:51:21;17;16;
60374;PMS5003;70244;48.792;9.172;2023-12-20T05:53:52;20;19;
60374;PMS5003;70244;48.792;9.172;2023-12-20T05:56:22;17;15;
60374;PMS5003;70244;48.792;9.172;2023-12-20T05:58:52;18;18;
60374;PMS5003;70244;48.792;9.172;2023-12-20T06:01:23;19;16;
60374;PMS5003;70244;48.792;9.172;2023-12-20T06:03:53;19;15;
60374;PMS5003;70244;48.792;9.172;2023-12-20T06:06:24;14;14;
60374;PMS5003;70244;48.792;9.172;2023-12-20T06:08:55;10;10;
60374;PMS5003;70244;48.792;9.172;2023-12-20T06:11:25;12;12;
60374;PMS5003;70244;48.792;9.172;2023-12-20T06:13:56;9;8;
60374;PMS5003;70244;48.792;9.172;2023-12-20T06:16:27;4;4;
60374;PMS5003;70244;48.792;9.172;2023-12-20T06:18:58;7;6;
60374;PMS5003;70244;48.792;9.172;2023-12-20T06:21:28;8;8;
60374;PMS5003;70244;48.792;9.172;2023-12-20T06:23:59;10;9;
60374;PMS5003;70244;48.792;9.172;2023-12-20T06:26:29;8;8;
60374;PMS5003;70244;48.792;9.172;2023-12-20T06:29:00;11;8;
60374;PMS5003;70244;48.792;9.172;2023-12-20T06:31:30;16;10;
60374;PMS5003;70244;48.792;9.172;2023-12-20T06:34:01;12;10;
60374;PMS5003;70244;48.792;9.172;2023-12-20T06:36:31;11;9;
60374;PMS5003;70244;48.792;9.172;2023-12-20T06:39:02;12;11;
60374;PMS5003;70244;48.792;9.172;2023-12-20T06:41:32;10;10;
60374;PMS5003;70244;48.792;9.172;2023-12-20T06:44:02;12;11;
60374;PMS5003;70244;48.792;9.172;2023-12-20T06:46:33;11;9;
60374;PMS5003;70244;48.792;9.172;2023-12-20T06:49:04;12;10;
60374;PMS5003;70244;48.792;9.172;2023-12-20T06:51:35;10;8;
60374;PMS5003;70244;48.792;9.172;2023-12-20T06:54:05;9;8;
60374;PMS5003;70244;48.792;9.172;2023-12-20T06:56:36;7;7;
60374;PMS5003;70244;48.792;9.172;2023-12-20T06:59:07;8;8;
60374;PMS5003;70244;48.792;9.172;2023-12-20T07:01:38;6;6;
60374;PMS5003;70244;48.792;9.172;2023-12-20T07:04:08;8;8;
60374;PMS5003;70244;48.792;9.172;2023-12-20T07:06:39;10;10;
60374;PMS5003;70244;48.792;9.172;2023-12-20T07:09:10;11;11;
60374;PMS5003;70244;48.792;9.172;2023-12-20T07:11:41;8;8;
60374;PMS5003;70244;48.792;9.172;2023-12-20T07:14:11;10;7;
60374;PMS5003;70244;48.792;9.172;2023-12-20T07:16:42;8;8;
60374;PMS5003;70244;48.792;9.172;2023-12-20T07:19:12;9;8;
60374;PMS5003;70244;48.792;9.172;2023-12-20T07:21:43;11;8;
60374;PMS5003;70244;48.792;9.172;2023-12-20T07:24:14;10;9;
60374;PMS5003;70244;48.792;9.172;2023-12-20T07:26:44;11;10;
60374;PMS5003;70244;48.792;9.172;2023-12-20T07:29:15;8;8;
60374;PMS5003;70244;48.792;9.172;2023-12-20T07:31:46;7;7;
60374;PMS5003;70244;48.792;9.172;2023-12-20T07:34:16;8;7;
60374;PMS5003;70244;48.792;9.172;2023-12-20T07:36:47;10;9;
60374;PMS5003;70244;48.792;9.172;2023-12-20T07:39:18;9;8;
60374;PMS5003;70244;48.792;9.172;2023-12-20T07:41:48;9;9;
60374;PMS5003;70244;48.792;9.172;2023-12-20T07:44:19;10;10;
60374;PMS5003;70244;48.792;9.172;2023-12-20T07:46:50;8;8;
60374;PMS5003;70244;48.792;9.172;2023-12-20T07:49:21;7;7;
60374;PMS5003;70244;48.792;9.172;2023-12-20T07:51:51;6;6;
60374;PMS5003;70244;48.792;9.172;2023-12-20T07:54:22;11;10;
60374;PMS5003;70244;48.792;9.172;2023-12-20T07:56:52;8;7;
60374;PMS5003;70244;48.792;9.172;2023-12-20T07:59:23;11;11;
60374;PMS5003;70244;48.792;9.172;2023-12-20T08:01:54;6;6;
60374;PMS5003;70244;48.792;9.172;2023-12-20T08:04:25;8;7;
60374;PMS5003;70244;48.792;9.172;2023-12-20T08:06:55;6;6;
60374;PMS5003;70244;48.792;9.172;2023-12-20T08:09:26;7;7;
60374;PMS5003;70244;48.792;9.172;2023-12-20T08:11:57;6;6;
60374;PMS5003;70244;48.792;9.172;2023-12-20T08:14:27;7;7;
60374;PMS5003;70244;48.792;9.172;2023-12-20T08:16:58;8;8;
60374;PMS5003;70244;48.792;9.172;2023-12-20T08:19:29;6;6;
60374;PMS5003;70244;48.792;9.172;2023-12-20T08:22:00;7;7;
60374;PMS5003;70244;48.792;9.172;2023-12-20T08:24:31;7;6;
60374;PMS5003;70244;48.792;9.172;2023-12-20T08:27:01;8;8;
60374;PMS5003;70244;48.792;9.172;2023-12-20T08:29:31;9;8;
60374;PMS5003;70244;48.792;9.172;2023-12-20T08:32:02;7;6;
60374;PMS5003;70244;48.792;9.172;2023-12-20T08:34:32;10;8;
60374;PMS5003;70244;48.792;9.172;2023-12-20T08:37:03;6;6;
60374;PMS5003;70244;48.792;9.172;2023-12-20T08:39:33;6;6;
60374;PMS5003;70244;48.792;9.172;2023-12-20T08:42:04;6;6;
60374;PMS5003;70244;48.792;9.172;2023-12-20T08:44:35;7;5;
60374;PMS5003;70244;48.792;9.172;2023-12-20T08:47:06;7;7;
60374;PMS5003;70244;48.792;9.172;2023-12-20T08:49:36;6;6;
60374;PMS5003;70244;48.792;9.172;2023-12-20T08:52:07;8;6;
60374;PMS5003;70244;48.792;9.172;2023-12-20T08:54:38;5;5;
60374;PMS5003;70244;48.792;9.172;2023-12-20T08:57:09;7;7;
60374;PMS5003;70244;48.792;9.172;2023-12-20T08:59:40;5;4;
60374;PMS5003;70244;48.792;9.172;2023-12-20T09:02:10;7;6;
60374;PMS5003;70244;48.792;9.172;2023-12-20T09:04:45;6;5;
60374;PMS5003;70244;48.792;9.172;2023-12-20T09:09:42;6;6;
60374;PMS5003;70244;48.792;9.172;2023-12-20T09:12:13;6;6;
60374;PMS5003;70244;48.792;9.172;2023-12-20T09:14:43;6;6;
60374;PMS5003;70244;48.792;9.172;2023-12-20T09:17:14;7;6;
60374;PMS5003;70244;48.792;9.172;2023-12-20T09:19:44;8;5;
60374;PMS5003;70244;48.792;9.172;2023-12-20T09:22:15;5;5;
60374;PMS5003;70244;48.792;9.172;2023-12-20T09:24:46;6;6;
60374;PMS5003;70244;48.792;9.172;2023-12-20T09:27:17;7;7;
60374;PMS5003;70244;48.792;9.172;2023-12-20T09:29:47;7;6;
60374;PMS5003;70244;48.792;9.172;2023-12-20T09:32:18;4;4;
60374;PMS5003;70244;48.792;9.172;2023-12-20T09:34:49;7;5;
60374;PMS5003;70244;48.792;9.172;2023-12-20T09:37:20;9;8;
60374;PMS5003;70244;48.792;9.172;2023-12-20T09:39:50;12;10;
60374;PMS5003;70244;48.792;9.172;2023-12-20T09:42:23;208;184;
60374;PMS5003;70244;48.792;9.172;2023-12-20T09:44:52;54;49;
60374;PMS5003;70244;48.792;9.172;2023-12-20T09:47:22;40;36;
60374;PMS5003;70244;48.792;9.172;2023-12-20T09:49:53;34;34;
60374;PMS5003;70244;48.792;9.172;2023-12-20T09:52:23;32;26;
60374;PMS5003;70244;48.792;9.172;2023-12-20T09:54:54;31;27;
60374;PMS5003;70244;48.792;9.172;2023-12-20T09:57:24;27;24;
60374;PMS5003;70244;48.792;9.172;2023-12-20T09:59:54;24;23;
60374;PMS5003;70244;48.792;9.172;2023-12-20T10:02:25;19;17;
60374;PMS5003;70244;48.792;9.172;2023-12-20T10:04:55;22;19;
60374;PMS5003;70244;48.792;9.172;2023-12-20T10:07:26;20;18;
60374;PMS5003;70244;48.792;9.172;2023-12-20T10:09:56;17;16;
60374;PMS5003;70244;48.792;9.172;2023-12-20T10:12:26;16;16;
60374;PMS5003;70244;48.792;9.172;2023-12-20T10:14:57;15;14;
60374;PMS5003;70244;48.792;9.172;2023-12-20T10:17:28;18;16;
60374;PMS5003;70244;48.792;9.172;2023-12-20T10:19:58;17;14;
60374;PMS5003;70244;48.792;9.172;2023-12-20T10:22:28;13;13;
60374;PMS5003;70244;48.792;9.172;2023-12-20T10:24:59;12;11;
60374;PMS5003;70244;48.792;9.172;2023-12-20T10:27:30;9;9;
60374;PMS5003;70244;48.792;9.172;2023-12-20T10:30:00;10;9;
60374;PMS5003;70244;48.792;9.172;2023-12-20T10:32:31;10;9;
60374;PMS5003;70244;48.792;9.172;2023-12-20T10:35:02;8;8;
60374;PMS5003;70244;48.792;9.172;2023-12-20T10:37:33;7;7;
60374;PMS5003;70244;48.792;9.172;2023-12-20T10:40:03;10;10;
60374;PMS5003;70244;48.792;9.172;2023-12-20T10:42:33;12;11;
60374;PMS5003;70244;48.792;9.172;2023-12-20T10:45:04;6;6;
60374;PMS5003;70244;48.792;9.172;2023-12-20T10:47:35;7;7;
60374;PMS5003;70244;48.792;9.172;2023-12-20T10:50:06;8;7;
60374;PMS5003;70244;48.792;9.172;2023-12-20T10:52:36;9;8;
60374;PMS5003;70244;48.792;9.172;2023-12-20T10:55:07;18;17;
60374;PMS5003;70244;48.792;9.172;2023-12-20T10:57:37;12;10;
60374;PMS5003;70244;48.792;9.172;2023-12-20T11:00:09;12;9;
60374;PMS5003;70244;48.792;9.172;2023-12-20T11:02:39;8;8;
60374;PMS5003;70244;48.792;9.172;2023-12-20T11:05:12;8;8;
60374;PMS5003;70244;48.792;9.172;2023-12-20T11:07:40;7;6;
60374;PMS5003;70244;48.792;9.172;2023-12-20T11:10:12;9;8;
60374;PMS5003;70244;48.792;9.172;2023-12-20T11:12:43;7;7;
60374;PMS5003;70244;48.792;9.172;2023-12-20T11:15:12;8;8;
60374;PMS5003;70244;48.792;9.172;2023-12-20T11:17:44;7;7;
60374;PMS5003;70244;48.792;9.172;2023-12-20T11:20:13;8;6;
60374;PMS5003;70244;48.792;9.172;2023-12-20T11:25:15;6;6;
60374;PMS5003;70244;48.792;9.172;2023-12-20T11:27:47;9;9;
60374;PMS5003;70244;48.792;9.172;2023-12-20T11:30:15;9;8;
60374;PMS5003;70244;48.792;9.172;2023-12-20T11:32:46;7;6;
60374;PMS5003;70244;48.792;9.172;2023-12-20T11:35:17;9;8;
60374;PMS5003;70244;48.792;9.172;2023-12-20T11:37:47;7;7;
60374;PMS5003;70244;48.792;9.172;2023-12-20T11:40:17;5;5;
60374;PMS5003;70244;48.792;9.172;2023-12-20T11:42:48;6;5;
60374;PMS5003;70244;48.792;9.172;2023-12-20T11:45:19;7;6;
60374;PMS5003;70244;48.792;9.172;2023-12-20T11:47:50;8;7;
60374;PMS5003;70244;48.792;9.172;2023-12-20T11:50:20;9;9;
60374;PMS5003;70244;48.792;9.172;2023-12-20T11:52:51;7;6;
60374;PMS5003;70244;48.792;9.172;2023-12-20T11:55:21;6;6;
60374;PMS5003;70244;48.792;9.172;2023-12-20T11:57:51;7;7;
60374;PMS5003;70244;48.792;9.172;2023-12-20T12:00:22;5;5;
60374;PMS5003;70244;48.792;9.172;2023-12-20T12:02:56;6;5;
60374;PMS5003;70244;48.792;9.172;2023-12-20T12:05:23;6;6;
60374;PMS5003;70244;48.792;9.172;2023-12-20T12:07:54;8;5;
60374;PMS5003;70244;48.792;9.172;2023-12-20T12:10:25;7;5;
60374;PMS5003;70244;48.792;9.172;2023-12-20T12:12:55;4;4;
60374;PMS5003;70244;48.792;9.172;2023-12-20T12:15:26;7;7;
60374;PMS5003;70244;48.792;9.172;2023-12-20T12:17:57;6;6;
60374;PMS5003;70244;48.792;9.172;2023-12-20T12:20:27;6;6;
60374;PMS5003;70244;48.792;9.172;2023-12-20T12:22:58;5;5;
60374;PMS5003;70244;48.792;9.172;2023-12-20T12:25:29;3;3;
60374;PMS5003;70244;48.792;9.172;2023-12-20T12:28:00;6;4;
60374;PMS5003;70244;48.792;9.172;2023-12-20T12:30:30;6;6;
60374;PMS5003;70244;48.792;9.172;2023-12-20T12:33:02;5;5;
60374;PMS5003;70244;48.792;9.172;2023-12-20T12:35:32;8;8;
60374;PMS5003;70244;48.792;9.172;2023-12-20T12:38:02;4;4;
60374;PMS5003;70244;48.792;9.172;2023-12-20T12:40:34;4;4;
60374;PMS5003;70244;48.792;9.172;2023-12-20T12:43:04;6;6;
60374;PMS5003;70244;48.792;9.172;2023-12-20T12:45:34;3;2;
60374;PMS5003;70244;48.792;9.172;2023-12-20T12:48:05;8;5;
60374;PMS5003;70244;48.792;9.172;2023-12-20T12:50:35;4;4;
60374;PMS5003;70244;48.792;9.172;2023-12-20T12:53:06;3;3;
60374;PMS5003;70244;48.792;9.172;2023-12-20T12:55:37;4;4;
60374;PMS5003;70244;48.792;9.172;2023-12-20T12:58:07;6;4;
60374;PMS5003;70244;48.792;9.172;2023-12-20T13:00:38;4;4;
60374;PMS5003;70244;48.792;9.172;2023-12-20T13:03:08;5;5;
60374;PMS5003;70244;48.792;9.172;2023-12-20T13:05:39;4;4;
60374;PMS5003;70244;48.792;9.172;2023-12-20T13:08:10;6;4;
60374;PMS5003;70244;48.792;9.172;2023-12-20T13:10:40;3;3;
60374;PMS5003;70244;48.792;9.172;2023-12-20T13:13:11;3;3;
60374;PMS5003;70244;48.792;9.172;2023-12-20T13:15:42;3;3;
60374;PMS5003;70244;48.792;9.172;2023-12-20T13:18:13;4;4;
60374;PMS5003;70244;48.792;9.172;2023-12-20T13:20:43;6;4;
60374;PMS5003;70244;48.792;9.172;2023-12-20T13:23:14;2;2;
60374;PMS5003;70244;48.792;9.172;2023-12-20T13:25:45;4;2;
60374;PMS5003;70244;48.792;9.172;2023-12-20T13:28:15;1;1;
60374;PMS5003;70244;48.792;9.172;2023-12-20T13:30:46;1;1;
60374;PMS5003;70244;48.792;9.172;2023-12-20T13:33:17;2;2;
60374;PMS5003;70244;48.792;9.172;2023-12-20T13:35:47;3;2;
60374;PMS5003;70244;48.792;9.172;2023-12-20T13:38:18;3;3;
60374;PMS5003;70244;48.792;9.172;2023-12-20T13:40:49;1;0;
60374;PMS5003;70244;48.792;9.172;2023-12-20T13:43:19;3;1;
60374;PMS5003;70244;48.792;9.172;2023-12-20T13:45:50;1;1;
60374;PMS5003;70244;48.792;9.172;2023-12-20T13:48:21;1;1;
60374;PMS5003;70244;48.792;9.172;2023-12-20T13:50:57;3;2;
60374;PMS5003;70244;48.792;9.172;2023-12-20T13:53:22;5;2;
60374;PMS5003;70244;48.792;9.172;2023-12-20T13:55:53;0;0;
60374;PMS5003;70244;48.792;9.172;2023-12-20T13:58:24;2;2;
60374;PMS5003;70244;48.792;9.172;2023-12-20T14:00:54;1;1;
60374;PMS5003;70244;48.792;9.172;2023-12-20T14:03:25;3;2;
60374;PMS5003;70244;48.792;9.172;2023-12-20T14:05:56;2;2;
60374;PMS5003;70244;48.792;9.172;2023-12-20T14:08:26;0;0;
60374;PMS5003;70244;48.792;9.172;2023-12-20T14:10:57;2;2;
60374;PMS5003;70244;48.792;9.172;2023-12-20T14:13:28;3;2;
60374;PMS5003;70244;48.792;9.172;2023-12-20T14:15:59;1;1;
60374;PMS5003;70244;48.792;9.172;2023-12-20T14:18:29;1;1;
60374;PMS5003;70244;48.792;9.172;2023-12-20T14:21:00;3;2;
60374;PMS5003;70244;48.792;9.172;2023-12-20T14:23:31;4;2;
60374;PMS5003;70244;48.792;9.172;2023-12-20T14:26:01;2;2;
60374;PMS5003;70244;48.792;9.172;2023-12-20T14:28:32;2;2;
60374;PMS5003;70244;48.792;9.172;2023-12-20T14:31:03;3;3;
60374;PMS5003;70244;48.792;9.172;2023-12-20T14:33:34;1;1;
60374;PMS5003;70244;48.792;9.172;2023-12-20T14:36:05;2;2;
60374;PMS5003;70244;48.792;9.172;2023-12-20T14:38:35;0;0;
60374;PMS5003;70244;48.792;9.172;2023-12-20T14:41:06;1;1;
60374;PMS5003;70244;48.792;9.172;2023-12-20T14:43:36;3;3;
60374;PMS5003;70244;48.792;9.172;2023-12-20T14:46:07;3;2;
60374;PMS5003;70244;48.792;9.172;2023-12-20T14:48:38;1;1;
60374;PMS5003;70244;48.792;9.172;2023-12-20T14:51:08;2;1;
60374;PMS5003;70244;48.792;9.172;2023-12-20T14:53:39;2;2;
60374;PMS5003;70244;48.792;9.172;2023-12-20T14:56:10;2;2;
60374;PMS5003;70244;48.792;9.172;2023-12-20T14:58:41;1;1;
60374;PMS5003;70244;48.792;9.172;2023-12-20T15:01:11;1;1;
60374;PMS5003;70244;48.792;9.172;2023-12-20T15:03:42;1;1;
60374;PMS5003;70244;48.792;9.172;2023-12-20T15:06:13;1;1;
60374;PMS5003;70244;48.792;9.172;2023-12-20T15:08:43;3;2;
60374;PMS5003;70244;48.792;9.172;2023-12-20T15:11:14;1;1;
60374;PMS5003;70244;48.792;9.172;2023-12-20T15:13:45;3;2;
60374;PMS5003;70244;48.792;9.172;2023-12-20T15:16:15;1;1;
60374;PMS5003;70244;48.792;9.172;2023-12-20T15:18:46;1;1;
60374;PMS5003;70244;48.792;9.172;2023-12-20T15:21:17;2;2;
60374;PMS5003;70244;48.792;9.172;2023-12-20T15:23:48;1;1;
60374;PMS5003;70244;48.792;9.172;2023-12-20T15:26:18;0;0;
60374;PMS5003;70244;48.792;9.172;2023-12-20T15:28:49;1;1;
60374;PMS5003;70244;48.792;9.172;2023-12-20T15:31:20;2;2;
60374;PMS5003;70244;48.792;9.172;2023-12-20T15:33:50;2;2;
60374;PMS5003;70244;48.792;9.172;2023-12-20T15:36:21;0;0;
60374;PMS5003;70244;48.792;9.172;2023-12-20T15:38:52;3;3;
60374;PMS5003;70244;48.792;9.172;2023-12-20T15:41:22;1;1;
60374;PMS5003;70244;48.792;9.172;2023-12-20T15:43:53;2;2;
60374;PMS5003;70244;48.792;9.172;2023-12-20T15:46:24;1;1;
60374;PMS5003;70244;48.792;9.172;2023-12-20T15:48:55;2;2;
60374;PMS5003;70244;48.792;9.172;2023-12-20T15:51:25;0;0;
60374;PMS5003;70244;48.792;9.172;2023-12-20T15:53:56;2;2;
60374;PMS5003;70244;48.792;9.172;2023-12-20T15:56:27;3;2;
60374;PMS5003;70244;48.792;9.172;2023-12-20T15:58:57;5;3;
60374;PMS5003;70244;48.792;9.172;2023-12-20T16:01:29;2;2;
60374;PMS5003;70244;48.792;9.172;2023-12-20T16:03:59;2;2;
60374;PMS5003;70244;48.792;9.172;2023-12-20T16:06:30;3;1;
60374;PMS5003;70244;48.792;9.172;2023-12-20T16:09:00;1;1;
60374;PMS5003;70244;48.792;9.172;2023-12-20T16:11:31;3;3;
60374;PMS5003;70244;48.792;9.172;2023-12-20T16:14:01;2;2;
60374;PMS5003;70244;48.792;9.172;2023-12-20T16:16:32;0;0;
60374;PMS5003;70244;48.792;9.172;2023-12-20T16:19:02;2;2;
60374;PMS5003;70244;48.792;9.172;2023-12-20T16:21:33;2;2;
60374;PMS5003;70244;48.792;9.172;2023-12-20T16:24:04;2;2;
60374;PMS5003;70244;48.792;9.172;2023-12-20T16:26:35;1;1;
60374;PMS5003;70244;48.792;9.172;2023-12-20T16:29:05;2;1;
60374;PMS5003;70244;48.792;9.172;2023-12-20T16:31:36;2;2;
60374;PMS5003;70244;48.792;9.172;2023-12-20T16:34:07;3;3;
60374;PMS5003;70244;48.792;9.172;2023-12-20T16:39:08;3;3;
60374;PMS5003;70244;48.792;9.172;2023-12-20T16:41:38;4;4;
60374;PMS5003;70244;48.792;9.172;2023-12-20T16:44:09;1;1;
60374;PMS5003;70244;48.792;9.172;2023-12-20T16:46:40;1;1;
60374;PMS5003;70244;48.792;9.172;2023-12-20T16:49:10;1;1;
60374;PMS5003;70244;48.792;9.172;2023-12-20T16:51:41;2;2;
60374;PMS5003;70244;48.792;9.172;2023-12-20T16:54:12;3;3;
60374;PMS5003;70244;48.792;9.172;2023-12-20T16:56:42;38;35;
60374;PMS5003;70244;48.792;9.172;2023-12-20T16:59:13;75;71;
60374;PMS5003;70244;48.792;9.172;2023-12-20T17:01:43;40;35;
60374;PMS5003;70244;48.792;9.172;2023-12-20T17:04:14;49;46;
60374;PMS5003;70244;48.792;9.172;2023-12-20T17:06:44;36;32;
60374;PMS5003;70244;48.792;9.172;2023-12-20T17:09:14;36;35;
60374;PMS5003;70244;48.792;9.172;2023-12-20T17:11:45;31;30;
60374;PMS5003;70244;48.792;9.172;2023-12-20T17:14:15;30;29;
60374;PMS5003;70244;48.792;9.172;2023-12-20T17:16:46;34;28;
60374;PMS5003;70244;48.792;9.172;2023-12-20T17:19:16;30;30;
60374;PMS5003;70244;48.792;9.172;2023-12-20T17:21:47;44;42;
60374;PMS5003;70244;48.792;9.172;2023-12-20T17:24:17;39;39;
60374;PMS5003;70244;48.792;9.172;2023-12-20T17:26:47;36;35;
60374;PMS5003;70244;48.792;9.172;2023-12-20T17:29:18;45;44;
60374;PMS5003;70244;48.792;9.172;2023-12-20T17:31:49;32;30;
60374;PMS5003;70244;48.792;9.172;2023-12-20T17:34:19;35;33;
60374;PMS5003;70244;48.792;9.172;2023-12-20T17:36:50;38;38;
60374;PMS5003;70244;48.792;9.172;2023-12-20T17:39:21;44;43;
60374;PMS5003;70244;48.792;9.172;2023-12-20T17:41:51;46;44;
60374;PMS5003;70244;48.792;9.172;2023-12-20T17:44:21;66;63;
60374;PMS5003;70244;48.792;9.172;2023-12-20T17:46:51;67;66;
60374;PMS5003;70244;48.792;9.172;2023-12-20T17:49:22;84;80;
60374;PMS5003;70244;48.792;9.172;2023-12-20T17:51:52;95;94;
60374;PMS5003;70244;48.792;9.172;2023-12-20T17:54:23;99;97;
60374;PMS5003;70244;48.792;9.172;2023-12-20T17:56:53;114;111;
60374;PMS5003;70244;48.792;9.172;2023-12-20T17:59:23;110;107;
60374;PMS5003;70244;48.792;9.172;2023-12-20T18:01:54;114;111;
60374;PMS5003;70244;48.792;9.172;2023-12-20T18:04:25;119;117;
60374;PMS5003;70244;48.792;9.172;2023-12-20T18:06:55;127;127;
60374;PMS5003;70244;48.792;9.172;2023-12-20T18:09:25;120;113;
60374;PMS5003;70244;48.792;9.172;2023-12-20T18:11:55;111;108;
60374;PMS5003;70244;48.792;9.172;2023-12-20T18:14:25;126;126;
60374;PMS5003;70244;48.792;9.172;2023-12-20T18:16:56;134;131;
60374;PMS5003;70244;48.792;9.172;2023-12-20T18:19:26;156;155;
60374;PMS5003;70244;48.792;9.172;2023-12-20T18:21:56;171;164;
60374;PMS5003;70244;48.792;9.172;2023-12-20T18:24:26;156;152;
60374;PMS5003;70244;48.792;9.172;2023-12-20T18:26:57;159;158;
60374;PMS5003;70244;48.792;9.172;2023-12-20T18:29:27;155;153;
60374;PMS5003;70244;48.792;9.172;2023-12-20T18:31:58;156;153;
60374;PMS5003;70244;48.792;9.172;2023-12-20T18:34:28;152;149;
60374;PMS5003;70244;48.792;9.172;2023-12-20T18:36:58;157;148;
60374;PMS5003;70244;48.792;9.172;2023-12-20T18:39:29;141;140;
60374;PMS5003;70244;48.792;9.172;2023-12-20T18:42:00;145;144;
60374;PMS5003;70244;48.792;9.172;2023-12-20T18:44:30;137;137;
60374;PMS5003;70244;48.792;9.172;2023-12-20T18:47:01;133;133;
60374;PMS5003;70244;48.792;9.172;2023-12-20T18:49:31;131;128;
60374;PMS5003;70244;48.792;9.172;2023-12-20T18:52:02;123;123;
60374;PMS5003;70244;48.792;9.172;2023-12-20T18:54:32;111;109;
60374;PMS5003;70244;48.792;9.172;2023-12-20T18:57:03;108;104;
60374;PMS5003;70244;48.792;9.172;2023-12-20T18:59:33;103;102;
60374;PMS5003;70244;48.792;9.172;2023-12-20T19:02:04;110;105;
60374;PMS5003;70244;48.792;9.172;2023-12-20T19:04:35;110;103;
60374;PMS5003;70244;48.792;9.172;2023-12-20T19:07:05;98;97;
60374;PMS5003;70244;48.792;9.172;2023-12-20T19:09:35;95;94;
60374;PMS5003;70244;48.792;9.172;2023-12-20T19:12:06;95;94;
60374;PMS5003;70244;48.792;9.172;2023-12-20T19:14:37;95;93;
60374;PMS5003;70244;48.792;9.172;2023-12-20T19:17:07;95;90;
60374;PMS5003;70244;48.792;9.172;2023-12-20T19:19:38;96;93;
60374;PMS5003;70244;48.792;9.172;2023-12-20T19:22:08;85;84;
60374;PMS5003;70244;48.792;9.172;2023-12-20T19:24:39;87;86;
60374;PMS5003;70244;48.792;9.172;2023-12-20T19:27:09;84;83;
60374;PMS5003;70244;48.792;9.172;2023-12-20T19:29:39;82;82;
60374;PMS5003;70244;48.792;9.172;2023-12-20T19:32:10;78;77;
60374;PMS5003;70244;48.792;9.172;2023-12-20T19:34:41;81;80;
60374;PMS5003;70244;48.792;9.172;2023-12-20T19:37:11;84;80;
60374;PMS5003;70244;48.792;9.172;2023-12-20T19:39:42;80;80;
60374;PMS5003;70244;48.792;9.172;2023-12-20T19:42:12;73;72;
60374;PMS5003;70244;48.792;9.172;2023-12-20T19:44:43;76;76;
60374;PMS5003;70244;48.792;9.172;2023-12-20T19:47:13;76;75;
60374;PMS5003;70244;48.792;9.172;2023-12-20T19:49:44;73;73;
60374;PMS5003;70244;48.792;9.172;2023-12-20T19:52:15;78;76;
60374;PMS5003;70244;48.792;9.172;2023-12-20T19:54:45;81;76;
60374;PMS5003;70244;48.792;9.172;2023-12-20T19:57:15;73;73;
60374;PMS5003;70244;48.792;9.172;2023-12-20T19:59:46;80;78;
60374;PMS5003;70244;48.792;9.172;2023-12-20T20:02:16;78;77;
60374;PMS5003;70244;48.792;9.172;2023-12-20T20:04:47;70;69;
60374;PMS5003;70244;48.792;9.172;2023-12-20T20:07:17;74;74;
60374;PMS5003;70244;48.792;9.172;2023-12-20T20:09:48;74;74;
60374;PMS5003;70244;48.792;9.172;2023-12-20T20:12:19;75;71;
60374;PMS5003;70244;48.792;9.172;2023-12-20T20:14:49;74;72;
60374;PMS5003;70244;48.792;9.172;2023-12-20T20:17:25;73;72;
60374;PMS5003;70244;48.792;9.172;2023-12-20T20:19:50;69;68;
60374;PMS5003;70244;48.792;9.172;2023-12-20T20:22:20;73;68;
60374;PMS5003;70244;48.792;9.172;2023-12-20T20:24:51;66;66;
60374;PMS5003;70244;48.792;9.172;2023-12-20T20:27:21;67;67;
60374;PMS5003;70244;48.792;9.172;2023-12-20T20:29:52;62;61;
60374;PMS5003;70244;48.792;9.172;2023-12-20T20:32:22;68;66;
60374;PMS5003;70244;48.792;9.172;2023-12-20T20:34:53;64;63;
60374;PMS5003;70244;48.792;9.172;2023-12-20T20:37:23;62;62;
60374;PMS5003;70244;48.792;9.172;2023-12-20T20:39:53;66;65;
60374;PMS5003;70244;48.792;9.172;2023-12-20T20:42:24;66;65;
60374;PMS5003;70244;48.792;9.172;2023-12-20T20:44:55;62;61;
60374;PMS5003;70244;48.792;9.172;2023-12-20T20:47:25;64;63;
60374;PMS5003;70244;48.792;9.172;2023-12-20T20:49:56;61;60;
60374;PMS5003;70244;48.792;9.172;2023-12-20T20:52:27;65;63;
60374;PMS5003;70244;48.792;9.172;2023-12-20T20:54:57;61;61;
60374;PMS5003;70244;48.792;9.172;2023-12-20T20:57:28;66;63;
60374;PMS5003;70244;48.792;9.172;2023-12-20T20:59:58;56;56;
60374;PMS5003;70244;48.792;9.172;2023-12-20T21:02:29;60;60;
60374;PMS5003;70244;48.792;9.172;2023-12-20T21:04:59;59;59;
60374;PMS5003;70244;48.792;9.172;2023-12-20T21:07:31;58;56;
60374;PMS5003;70244;48.792;9.172;2023-12-20T21:10:00;53;52;
60374;PMS5003;70244;48.792;9.172;2023-12-20T21:12:31;57;55;
60374;PMS5003;70244;48.792;9.172;2023-12-20T21:15:02;59;59;
60374;PMS5003;70244;48.792;9.172;2023-12-20T21:17:32;58;56;
60374;PMS5003;70244;48.792;9.172;2023-12-20T21:20:02;60;58;
60374;PMS5003;70244;48.792;9.172;2023-12-20T21:22:33;50;50;
60374;PMS5003;70244;48.792;9.172;2023-12-20T21:25:04;53;52;
60374;PMS5003;70244;48.792;9.172;2023-12-20T21:27:34;52;52;
60374;PMS5003;70244;48.792;9.172;2023-12-20T21:30:05;55;54;
60374;PMS5003;70244;48.792;9.172;2023-12-20T21:32:35;56;53;
60374;PMS5003;70244;48.792;9.172;2023-12-20T21:35:05;50;49;
60374;PMS5003;70244;48.792;9.172;2023-12-20T21:37:35;48;48;
60374;PMS5003;70244;48.792;9.172;2023-12-20T21:40:06;56;53;
60374;PMS5003;70244;48.792;9.172;2023-12-20T21:42:36;49;48;
60374;PMS5003;70244;48.792;9.172;2023-12-20T21:45:07;50;49;
60374;PMS5003;70244;48.792;9.172;2023-12-20T21:47:37;47;47;
60374;PMS5003;70244;48.792;9.172;2023-12-20T21:50:08;45;44;
60374;PMS5003;70244;48.792;9.172;2023-12-20T21:52:38;38;38;
60374;PMS5003;70244;48.792;9.172;2023-12-20T21:55:09;31;30;
60374;PMS5003;70244;48.792;9.172;2023-12-20T21:57:40;27;26;
60374;PMS5003;70244;48.792;9.172;2023-12-20T22:00:10;24;24;
60374;PMS5003;70244;48.792;9.172;2023-12-20T22:02:41;26;25;
60374;PMS5003;70244;48.792;9.172;2023-12-20T22:05:11;20;19;
60374;PMS5003;70244;48.792;9.172;2023-12-20T22:07:42;23;23;
60374;PMS5003;70244;48.792;9.172;2023-12-20T22:10:12;19;19;
60374;PMS5003;70244;48.792;9.172;2023-12-20T22:12:43;21;21;
60374;PMS5003;70244;48.792;9.172;2023-12-20T22:15:13;22;22;
60374;PMS5003;70244;48.792;9.172;2023-12-20T22:17:44;20;20;
60374;PMS5003;70244;48.792;9.172;2023-12-20T22:20:14;20;19;